Time;durP1;ratioP1;P1;durP2;ratioP2;P2;SDS_P1;SDS_P2;PMS_P1;PMS_P2;Temp;Humidity;BMP_temperature;BMP_pressure;BME280_temperature;BME280_humidity;BME280_pressure;Samples;Min_cycle;Max_cycle;Signal;HPM_P1;HPM_P2
2023/04/07 00:01:45;;;;;;;11.60;10.43;;;5.90;99.90;;;;;;5074414;28;20224;-66
2023/04/07 00:04:10;;;;;;;10.50;9.40;;;5.90;99.90;;;;;;5075312;28;20181;-65
2023/04/07 00:06:36;;;;;;;10.77;9.70;;;5.90;99.90;;;;;;5075017;28;20412;-65
2023/04/07 00:09:02;;;;;;;13.07;10.87;;;5.90;99.90;;;;;;5074979;28;20189;-67
2023/04/07 00:11:28;;;;;;;12.00;10.63;;;5.90;99.90;;;;;;5074439;28;20182;-66
2023/04/07 00:13:54;;;;;;;11.40;10.10;;;5.80;99.90;;;;;;5074961;28;20405;-65
2023/04/07 00:16:19;;;;;;;11.63;10.47;;;5.80;99.90;;;;;;5074684;28;20303;-65
2023/04/07 00:18:45;;;;;;;11.70;10.67;;;5.80;99.90;;;;;;5074411;28;20897;-65
2023/04/07 00:21:11;;;;;;;13.70;10.80;;;5.70;99.90;;;;;;5056584;28;20178;-64
2023/04/07 00:23:37;;;;;;;12.47;11.00;;;5.70;99.90;;;;;;5056747;28;20450;-65
2023/04/07 00:26:03;;;;;;;12.00;10.67;;;5.70;99.90;;;;;;5074877;28;20174;-64
2023/04/07 00:28:28;;;;;;;11.10;9.97;;;5.60;99.90;;;;;;5074499;28;20176;-66
2023/04/07 00:30:54;;;;;;;12.23;10.73;;;5.60;99.90;;;;;;5073920;28;20205;-65
2023/04/07 00:33:20;;;;;;;8.87;7.97;;;5.60;99.90;;;;;;5074598;28;20187;-65
2023/04/07 00:35:45;;;;;;;10.37;8.67;;;5.60;99.90;;;;;;5056218;28;20224;-65
2023/04/07 00:38:11;;;;;;;10.13;9.20;;;5.60;99.90;;;;;;5074579;28;20180;-65
2023/04/07 00:40:37;;;;;;;10.27;8.73;;;5.60;99.90;;;;;;5073839;28;20168;-65
2023/04/07 00:43:03;;;;;;;11.50;8.90;;;5.50;99.90;;;;;;5074188;28;20824;-65
2023/04/07 00:45:29;;;;;;;11.83;8.70;;;5.50;99.90;;;;;;5074468;28;20171;-64
2023/04/07 00:47:57;;;;;;;9.83;8.83;;;5.50;99.90;;;;;;5074271;28;20687;-65
2023/04/07 00:50:22;;;;;;;11.87;9.27;;;5.50;99.90;;;;;;5073633;28;20454;-65
2023/04/07 00:52:48;;;;;;;13.30;9.23;;;5.50;99.90;;;;;;5073561;28;20424;-65
2023/04/07 00:55:14;;;;;;;10.13;9.00;;;5.50;99.90;;;;;;5073750;28;20558;-64
2023/04/07 00:57:40;;;;;;;10.00;8.97;;;5.50;99.90;;;;;;5074128;28;20738;-64
2023/04/07 01:00:07;;;;;;;9.10;7.67;;;5.50;99.90;;;;;;5073635;28;20165;-65
2023/04/07 01:02:37;;;;;;;9.37;8.33;;;5.50;99.90;;;;;;5073914;28;20955;-65
2023/04/07 01:05:17;;;;;;;10.60;8.13;;;5.50;99.90;;;;;;5056047;28;20424;-65
2023/04/07 01:07:45;;;;;;;9.17;8.23;;;5.50;99.90;;;;;;5074008;28;20414;-65
2023/04/07 01:10:16;;;;;;;9.53;8.53;;;5.50;99.90;;;;;;5072678;28;20448;-64
2023/04/07 01:12:50;;;;;;;9.57;8.63;;;5.40;99.90;;;;;;5073960;28;20455;-64
2023/04/07 01:15:21;;;;;;;8.77;8.00;;;5.40;99.90;;;;;;5073795;28;20435;-65
2023/04/07 01:17:51;;;;;;;11.83;9.33;;;5.40;99.90;;;;;;5073801;28;20465;-65
2023/04/07 01:20:22;;;;;;;9.67;8.43;;;5.40;99.90;;;;;;5073142;28;20414;-65
2023/04/07 01:22:59;;;;;;;9.93;7.60;;;5.30;99.90;;;;;;5073757;28;20435;-65
2023/04/07 01:26:03;;;;;;;10.40;9.27;;;5.30;99.90;;;;;;5073681;28;20885;-64
2023/04/07 01:28:55;;;;;;;8.10;7.40;;;5.30;99.90;;;;;;5073222;28;20447;-65
2023/04/07 01:31:24;;;;;;;8.97;7.40;;;5.30;99.90;;;;;;5072619;28;20419;-65
2023/04/07 01:33:51;;;;;;;8.33;6.50;;;5.20;99.90;;;;;;5073517;28;20541;-65
2023/04/07 01:36:18;;;;;;;6.43;5.93;;;5.20;99.90;;;;;;5073483;28;20897;-65
2023/04/07 01:38:45;;;;;;;7.83;7.10;;;5.20;99.90;;;;;;5073497;28;20503;-65
2023/04/07 01:41:13;;;;;;;8.03;7.23;;;5.20;99.90;;;;;;5072684;28;20961;-64
2023/04/07 01:43:40;;;;;;;8.80;7.40;;;5.20;99.90;;;;;;5073122;28;20431;-64
2023/04/07 01:46:06;;;;;;;7.57;6.87;;;5.10;99.90;;;;;;5073281;28;20399;-65
2023/04/07 01:48:35;;;;;;;8.90;6.13;;;5.20;99.90;;;;;;5072734;28;21041;-65
2023/04/07 01:51:01;;;;;;;7.40;6.70;;;5.20;99.90;;;;;;5072577;28;20392;-65
2023/04/07 01:53:28;;;;;;;7.97;7.27;;;5.20;99.90;;;;;;5055388;28;20540;-64
2023/04/07 01:55:53;;;;;;;8.73;7.23;;;5.20;99.90;;;;;;5073206;28;20413;-65
2023/04/07 01:58:19;;;;;;;7.93;7.30;;;5.10;99.90;;;;;;5073219;28;20866;-64
2023/04/07 02:00:45;;;;;;;9.50;6.90;;;5.10;99.90;;;;;;5072582;28;20247;-65
2023/04/07 02:03:19;;;;;;;9.87;7.20;;;5.10;99.90;;;;;;5072950;28;20446;-64
2023/04/07 02:05:48;;;;;;;7.30;6.60;;;5.10;99.90;;;;;;5071606;28;20402;-64
2023/04/07 02:08:16;;;;;;;10.30;7.30;;;5.10;99.90;;;;;;5071874;28;20485;-64
2023/04/07 02:10:45;;;;;;;7.97;6.60;;;5.00;99.90;;;;;;5072453;28;20484;-65
2023/04/07 02:13:17;;;;;;;6.93;6.30;;;5.00;99.90;;;;;;5072970;28;20504;-64
2023/04/07 02:15:46;;;;;;;9.07;7.20;;;5.00;99.90;;;;;;5072878;28;20412;-65
2023/04/07 02:18:14;;;;;;;10.07;7.87;;;5.00;99.90;;;;;;5073025;28;20801;-65
2023/04/07 02:20:42;;;;;;;9.30;6.90;;;4.90;99.90;;;;;;5072358;28;20415;-65
2023/04/07 02:23:08;;;;;;;7.57;6.60;;;4.90;99.90;;;;;;5072384;28;20423;-65
2023/04/07 02:25:36;;;;;;;8.60;7.27;;;4.90;99.90;;;;;;5072677;28;20450;-65
2023/04/07 02:28:03;;;;;;;7.70;7.00;;;4.90;99.90;;;;;;5072996;28;20166;-64
2023/04/07 02:30:30;;;;;;;7.13;6.50;;;4.90;99.90;;;;;;5054147;28;20475;-65
2023/04/07 02:32:56;;;;;;;8.00;6.70;;;4.90;99.90;;;;;;5072700;28;20429;-65
2023/04/07 02:35:22;;;;;;;7.60;6.97;;;4.80;99.90;;;;;;5072908;28;20494;-66
2023/04/07 02:37:48;;;;;;;7.80;7.10;;;4.80;99.90;;;;;;5072672;28;20171;-65
2023/04/07 02:40:14;;;;;;;6.40;5.90;;;4.80;99.90;;;;;;5071835;28;20438;-65
2023/04/07 02:42:40;;;;;;;7.17;6.50;;;4.80;99.90;;;;;;5072285;28;20443;-64
2023/04/07 02:45:08;;;;;;;8.23;6.17;;;4.80;99.90;;;;;;5072651;28;20410;-64
2023/04/07 02:47:35;;;;;;;7.70;7.00;;;4.70;99.90;;;;;;5072756;28;20774;-64
2023/04/07 02:50:01;;;;;;;8.03;7.00;;;4.70;99.90;;;;;;5072239;28;20487;-64
2023/04/07 02:52:26;;;;;;;6.90;6.30;;;4.70;99.90;;;;;;5072034;28;20872;-64
2023/04/07 02:54:52;;;;;;;7.60;6.90;;;4.70;99.90;;;;;;5054498;28;20421;-64
2023/04/07 02:57:18;;;;;;;8.03;7.27;;;4.60;99.90;;;;;;5072571;28;20168;-64
2023/04/07 02:59:44;;;;;;;10.30;7.00;;;4.60;99.90;;;;;;5072185;28;20405;-65
2023/04/07 03:02:10;;;;;;;8.90;7.43;;;4.60;99.90;;;;;;5053580;28;20302;-64
2023/04/07 03:04:37;;;;;;;8.83;7.57;;;4.60;99.90;;;;;;5072427;28;20783;-65
2023/04/07 03:07:03;;;;;;;8.10;7.30;;;4.50;99.90;;;;;;5072390;28;20394;-65
2023/04/07 03:09:28;;;;;;;7.63;6.93;;;4.50;99.90;;;;;;5054481;28;20570;-65
2023/04/07 03:11:54;;;;;;;8.87;8.00;;;4.60;99.90;;;;;;5071523;28;20216;-65
2023/04/07 03:14:20;;;;;;;8.03;7.23;;;4.50;99.90;;;;;;5072272;28;20191;-65
2023/04/07 03:16:46;;;;;;;9.77;7.50;;;4.50;99.90;;;;;;5072726;28;20405;-64
2023/04/07 03:19:12;;;;;;;8.83;7.50;;;4.50;99.90;;;;;;5075347;28;20490;-64
2023/04/07 03:21:38;;;;;;;8.40;7.57;;;4.50;99.90;;;;;;5075246;28;20187;-65
2023/04/07 03:24:05;;;;;;;8.67;7.40;;;4.40;99.90;;;;;;5075980;28;20174;-65
2023/04/07 03:26:31;;;;;;;7.83;7.10;;;4.40;99.90;;;;;;5075857;28;20412;-64
2023/04/07 03:28:56;;;;;;;8.97;8.10;;;4.40;99.90;;;;;;5075769;28;20460;-64
2023/04/07 03:31:22;;;;;;;9.40;8.20;;;4.40;99.90;;;;;;5075231;28;20167;-65
2023/04/07 03:33:49;;;;;;;9.73;8.10;;;4.30;99.90;;;;;;5075706;28;20175;-64
2023/04/07 03:36:16;;;;;;;8.63;7.97;;;4.40;99.90;;;;;;5075683;28;20173;-65
2023/04/07 03:38:41;;;;;;;10.27;8.60;;;4.30;99.90;;;;;;5075569;28;20403;-65
2023/04/07 03:41:07;;;;;;;8.67;7.90;;;4.30;99.90;;;;;;5074560;28;20496;-64
2023/04/07 03:43:33;;;;;;;10.33;7.70;;;4.30;99.90;;;;;;5075560;28;20219;-64
2023/04/07 03:45:59;;;;;;;9.97;8.30;;;4.20;1.00;;;;;;5075686;28;20194;-64
2023/04/07 03:48:25;;;;;;;13.90;9.33;;;4.20;1.00;;;;;;5075338;28;20166;-65
2023/04/07 03:50:50;;;;;;;17.00;10.33;;;4.20;99.90;;;;;;5074925;28;20449;-65
2023/04/07 03:53:18;;;;;;;11.10;9.40;;;4.20;1.00;;;;;;5075425;28;20971;-65
2023/04/07 03:55:44;;;;;;;9.17;7.83;;;4.20;1.00;;;;;;5074908;28;20171;-65
2023/04/07 03:58:10;;;;;;;9.37;8.40;;;4.20;1.00;;;;;;5075167;28;20407;-64
2023/04/07 04:00:36;;;;;;;9.73;8.97;;;4.20;1.00;;;;;;5074578;28;20465;-65
2023/04/07 04:03:02;;;;;;;10.70;9.70;;;4.10;1.00;;;;;;5075127;28;20461;-65
2023/04/07 04:05:28;;;;;;;11.17;8.27;;;4.10;1.00;;;;;;5075450;28;20397;-64
2023/04/07 04:07:53;;;;;;;10.53;9.47;;;4.10;1.00;;;;;;5075249;28;20400;-65
2023/04/07 04:10:19;;;;;;;10.20;9.23;;;4.00;1.00;;;;;;5074454;28;20616;-65
2023/04/07 04:12:47;;;;;;;9.37;8.50;;;4.00;1.00;;;;;;5075018;28;20187;-64
2023/04/07 04:15:13;;;;;;;10.37;9.40;;;4.00;1.00;;;;;;5074426;28;20401;-64
2023/04/07 04:17:40;;;;;;;11.57;9.83;;;4.00;1.00;;;;;;5075012;28;20753;-64
2023/04/07 04:20:07;;;;;;;13.37;10.40;;;4.00;1.00;;;;;;5074435;28;20400;-64
2023/04/07 04:22:32;;;;;;;11.77;9.97;;;4.10;1.00;;;;;;5074801;28;20453;-65
2023/04/07 04:24:59;;;;;;;9.97;9.17;;;4.10;1.00;;;;;;5074732;28;20765;-64
2023/04/07 04:27:24;;;;;;;10.83;9.87;;;4.00;1.00;;;;;;5074889;28;20189;-64
2023/04/07 04:29:50;;;;;;;11.90;9.93;;;3.90;1.00;;;;;;5073755;28;20452;-64
2023/04/07 04:32:16;;;;;;;10.17;9.33;;;4.00;1.00;;;;;;5055535;28;20434;-64
2023/04/07 04:34:42;;;;;;;11.97;10.30;;;3.90;1.00;;;;;;5074703;28;20640;-64
2023/04/07 04:37:08;;;;;;;12.00;10.80;;;3.90;1.00;;;;;;5074510;28;20409;-64
2023/04/07 04:39:35;;;;;;;12.60;9.97;;;3.90;1.00;;;;;;5074689;28;20482;-64
2023/04/07 04:42:00;;;;;;;14.67;11.37;;;3.90;1.00;;;;;;5073955;28;20436;-64
2023/04/07 04:44:26;;;;;;;14.67;11.87;;;3.80;1.00;;;;;;5074454;28;20405;-64
2023/04/07 04:46:52;;;;;;;13.07;11.50;;;3.80;1.00;;;;;;5056349;28;20265;-64
2023/04/07 04:49:18;;;;;;;12.20;11.00;;;3.80;1.00;;;;;;5055803;28;20258;-64
2023/04/07 04:51:44;;;;;;;11.33;10.27;;;3.80;1.00;;;;;;5073544;28;20183;-65
2023/04/07 04:54:10;;;;;;;11.93;10.73;;;3.90;1.00;;;;;;5074561;28;20405;-65
2023/04/07 04:56:36;;;;;;;13.40;11.97;;;3.80;1.00;;;;;;5074275;28;20424;-65
2023/04/07 04:59:03;;;;;;;12.70;11.47;;;3.90;1.00;;;;;;5073957;28;20642;-65
2023/04/07 05:01:29;;;;;;;12.57;11.27;;;3.90;1.00;;;;;;5073238;28;20194;-65
2023/04/07 05:03:55;;;;;;;12.43;10.93;;;3.80;1.00;;;;;;5073941;28;20405;-64
2023/04/07 05:06:21;;;;;;;12.80;11.60;;;3.80;1.00;;;;;;5073358;28;20428;-64
2023/04/07 05:08:46;;;;;;;15.97;11.70;;;3.80;1.00;;;;;;5073952;28;20440;-65
2023/04/07 05:11:12;;;;;;;12.90;11.17;;;3.80;1.00;;;;;;5055301;28;20410;-64
2023/04/07 05:13:38;;;;;;;14.40;11.57;;;3.80;1.00;;;;;;5055881;28;20191;-65
2023/04/07 05:16:04;;;;;;;13.20;11.90;;;3.80;1.00;;;;;;5073856;28;20409;-65
2023/04/07 05:18:30;;;;;;;16.27;11.33;;;3.80;1.00;;;;;;5073840;28;20162;-65
2023/04/07 05:20:56;;;;;;;15.70;12.67;;;3.80;1.00;;;;;;5072996;28;20401;-64
2023/04/07 05:23:21;;;;;;;13.63;11.17;;;3.80;1.00;;;;;;5073624;28;20621;-64
2023/04/07 05:25:47;;;;;;;12.60;11.33;;;3.80;1.00;;;;;;5073153;28;20254;-65
2023/04/07 05:28:13;;;;;;;13.30;11.97;;;3.80;1.00;;;;;;5073691;28;20253;-65
2023/04/07 05:30:38;;;;;;;13.73;11.57;;;3.80;1.00;;;;;;5072904;28;20630;-64
2023/04/07 05:33:04;;;;;;;12.50;11.23;;;3.90;1.00;;;;;;5073358;28;20222;-65
2023/04/07 05:35:30;;;;;;;14.03;12.53;;;4.00;1.00;;;;;;5073563;28;20201;-65
2023/04/07 05:37:56;;;;;;;13.40;12.00;;;4.00;1.00;;;;;;5073521;28;20394;-66
2023/04/07 05:40:21;;;;;;;15.50;12.80;;;4.00;1.00;;;;;;5072730;28;20171;-65
2023/04/07 05:42:47;;;;;;;15.30;13.00;;;4.00;1.00;;;;;;5073418;28;20246;-64
2023/04/07 05:45:13;;;;;;;14.17;11.70;;;4.00;1.00;;;;;;5072586;28;20167;-65
2023/04/07 05:47:39;;;;;;;16.57;11.50;;;4.00;1.00;;;;;;5073195;28;20174;-64
2023/04/07 05:50:05;;;;;;;16.07;11.57;;;4.00;1.00;;;;;;5072610;28;20206;-64
2023/04/07 05:52:31;;;;;;;19.30;12.73;;;4.10;1.00;;;;;;5073125;28;20477;-64
2023/04/07 05:54:56;;;;;;;14.57;11.97;;;4.10;1.00;;;;;;5073173;28;20392;-64
2023/04/07 05:57:22;;;;;;;13.90;12.57;;;4.20;1.00;;;;;;5073044;28;20171;-64
2023/04/07 05:59:48;;;;;;;15.57;12.43;;;4.20;1.00;;;;;;5072660;28;20170;-64
2023/04/07 06:02:13;;;;;;;15.40;11.47;;;4.30;1.00;;;;;;5072124;28;20221;-64
2023/04/07 06:04:39;;;;;;;13.43;11.27;;;4.30;1.00;;;;;;5073093;28;20178;-64
2023/04/07 06:07:06;;;;;;;14.30;11.80;;;4.30;1.00;;;;;;5073018;28;20220;-64
2023/04/07 06:09:31;;;;;;;12.83;11.30;;;4.40;1.00;;;;;;5072800;28;20852;-64
2023/04/07 06:11:57;;;;;;;15.63;11.87;;;4.40;1.00;;;;;;5072285;28;20423;-64
2023/04/07 06:14:25;;;;;;;13.07;10.47;;;4.50;1.00;;;;;;5072965;28;20247;-64
2023/04/07 06:16:50;;;;;;;13.63;10.30;;;4.40;1.00;;;;;;5073071;28;20403;-64
2023/04/07 06:19:16;;;;;;;12.73;11.07;;;4.50;1.00;;;;;;5072316;28;20409;-64
2023/04/07 06:21:42;;;;;;;14.87;11.17;;;4.60;1.00;;;;;;5072100;28;20196;-64
2023/04/07 06:24:08;;;;;;;15.93;11.27;;;4.60;1.00;;;;;;5073020;28;20174;-64
2023/04/07 06:26:33;;;;;;;14.00;10.67;;;4.70;1.00;;;;;;5072902;28;20244;-65
2023/04/07 06:28:59;;;;;;;14.10;10.57;;;4.70;1.00;;;;;;5072753;28;20192;-64
2023/04/07 06:31:25;;;;;;;12.17;10.70;;;4.70;1.00;;;;;;5072188;28;20177;-64
2023/04/07 06:33:52;;;;;;;14.80;9.63;;;4.80;1.00;;;;;;5072751;28;20431;-65
2023/04/07 06:36:17;;;;;;;12.27;10.37;;;4.90;1.00;;;;;;5072138;28;20458;-65
2023/04/07 06:38:43;;;;;;;11.73;10.50;;;4.90;1.00;;;;;;5072825;28;20765;-65
2023/04/07 06:41:15;;;;;;;12.07;9.07;;;5.10;1.00;;;;;;5072095;28;20570;-64
2023/04/07 06:43:42;;;;;;;15.53;9.27;;;5.10;1.00;;;;;;5072487;28;20209;-65
2023/04/07 06:46:08;;;;;;;15.30;10.07;;;5.20;1.00;;;;;;5072704;28;20394;-65
2023/04/07 06:48:33;;;;;;;15.20;10.53;;;5.20;1.00;;;;;;5072624;28;20451;-65
2023/04/07 06:50:59;;;;;;;12.37;10.03;;;5.30;1.00;;;;;;5072033;28;20177;-64
2023/04/07 06:53:25;;;;;;;10.80;8.60;;;5.30;1.00;;;;;;5076047;28;20197;-65
2023/04/07 06:55:50;;;;;;;13.77;9.40;;;5.40;1.00;;;;;;5075946;28;20170;-65
2023/04/07 06:58:16;;;;;;;11.43;9.33;;;5.40;1.00;;;;;;5087797;28;20183;-64
2023/04/07 07:00:41;;;;;;;8.83;7.93;;;5.50;1.00;;;;;;5096013;28;20203;-64
2023/04/07 07:03:07;;;;;;;9.67;8.67;;;5.60;1.00;;;;;;5096517;28;20201;-65
2023/04/07 07:05:33;;;;;;;12.20;8.43;;;5.70;1.00;;;;;;5096657;28;20670;-64
2023/04/07 07:07:59;;;;;;;8.67;7.40;;;5.70;1.00;;;;;;5096500;28;20215;-65
2023/04/07 07:10:24;;;;;;;9.80;7.60;;;5.80;1.00;;;;;;5095834;28;20201;-65
2023/04/07 07:12:50;;;;;;;16.90;8.13;;;5.90;1.00;;;;;;5096555;28;20192;-65
2023/04/07 07:15:17;;;;;;;7.97;7.27;;;6.00;1.00;;;;;;5095874;28;20177;-65
2023/04/07 07:17:43;;;;;;;8.67;7.30;;;6.10;1.00;;;;;;5096443;28;20396;-65
2023/04/07 07:20:09;;;;;;;9.33;7.80;;;6.20;1.00;;;;;;5095716;28;20413;-68
2023/04/07 07:22:35;;;;;;;9.07;7.47;;;6.20;1.00;;;;;;5096320;28;20415;-67
2023/04/07 07:25:01;;;;;;;9.10;6.97;;;6.30;1.00;;;;;;5096093;28;20407;-67
2023/04/07 07:27:27;;;;;;;10.00;8.10;;;6.40;1.00;;;;;;5096341;28;20396;-67
2023/04/07 07:29:52;;;;;;;10.63;7.67;;;6.40;1.00;;;;;;5095749;28;20201;-67
2023/04/07 07:32:18;;;;;;;15.23;7.13;;;6.50;1.00;;;;;;5095100;28;20184;-67
2023/04/07 07:34:44;;;;;;;8.10;7.23;;;6.60;1.00;;;;;;5096321;28;20253;-65
2023/04/07 07:37:11;;;;;;;11.67;7.53;;;6.70;1.00;;;;;;5096395;28;20166;-66
2023/04/07 07:39:36;;;;;;;8.60;6.97;;;6.70;1.00;;;;;;5095947;28;20522;-68
2023/04/07 07:42:02;;;;;;;6.77;6.17;;;6.80;1.00;;;;;;5077113;28;20438;-68
2023/04/07 07:44:28;;;;;;;9.20;7.30;;;6.90;1.00;;;;;;5095869;28;20177;-66
2023/04/07 07:46:54;;;;;;;7.67;6.43;;;7.00;1.00;;;;;;5095329;28;20170;-67
2023/04/07 07:49:20;;;;;;;8.80;6.93;;;7.00;1.00;;;;;;5095636;28;20239;-67
2023/04/07 07:51:46;;;;;;;10.23;6.50;;;7.10;1.00;;;;;;5094964;28;20177;-68
2023/04/07 07:54:12;;;;;;;6.97;6.30;;;7.20;1.00;;;;;;5095646;28;20402;-67
2023/04/07 07:56:37;;;;;;;12.43;6.70;;;7.30;1.00;;;;;;5095637;28;20165;-67
2023/04/07 07:59:05;;;;;;;8.40;5.53;;;7.40;1.00;;;;;;5095676;28;20210;-67
2023/04/07 08:01:31;;;;;;;7.60;6.60;;;7.50;1.00;;;;;;5094993;28;20166;-68
2023/04/07 08:03:57;;;;;;;8.17;6.37;;;7.70;1.00;;;;;;5094307;28;20404;-67
2023/04/07 08:06:22;;;;;;;6.70;6.10;;;7.90;1.00;;;;;;5094695;28;20404;-68
2023/04/07 08:08:49;;;;;;;6.30;5.70;;;7.90;1.00;;;;;;5095416;28;20162;-67
2023/04/07 08:11:15;;;;;;;5.87;5.33;;;7.90;1.00;;;;;;5094688;28;20250;-68
2023/04/07 08:13:44;;;;;;;5.60;5.10;;;8.00;1.00;;;;;;5095336;28;20447;-68
2023/04/07 08:16:10;;;;;;;8.83;7.00;;;8.10;1.00;;;;;;5077384;28;20418;-68
2023/04/07 08:18:36;;;;;;;12.60;6.70;;;8.30;1.00;;;;;;5095204;28;20407;-68
2023/04/07 08:21:04;;;;;;;19.43;7.47;;;8.40;1.00;;;;;;5094580;28;20416;-68
2023/04/07 08:23:30;;;;;;;11.13;5.77;;;8.50;1.00;;;;;;5094641;28;20235;-68
2023/04/07 08:25:56;;;;;;;5.83;5.33;;;8.70;1.00;;;;;;5095075;28;20411;-68
2023/04/07 08:28:23;;;;;;;6.43;5.80;;;8.70;1.00;;;;;;5095094;28;20900;-69
2023/04/07 08:30:49;;;;;;;6.10;5.53;;;8.80;1.00;;;;;;5094329;28;20206;-68
2023/04/07 08:33:14;;;;;;;5.13;4.73;;;8.90;1.00;;;;;;5094915;28;20402;-67
2023/04/07 08:35:40;;;;;;;7.57;5.87;;;9.00;1.00;;;;;;5094879;28;20172;-68
2023/04/07 08:38:07;;;;;;;6.87;6.17;;;9.10;1.00;;;;;;5094948;28;20250;-68
2023/04/07 08:40:33;;;;;;;8.00;5.47;;;9.10;1.00;;;;;;5094076;28;20172;-68
2023/04/07 08:43:03;;;;;;;6.60;5.07;;;9.10;1.00;;;;;;5076174;28;20486;-68
2023/04/07 08:45:30;;;;;;;5.60;5.10;;;9.20;1.00;;;;;;5094525;28;20286;-68
2023/04/07 08:47:59;;;;;;;5.07;4.67;;;9.30;1.00;;;;;;5094593;28;20866;-66
2023/04/07 08:50:27;;;;;;;4.30;3.93;;;9.20;1.00;;;;;;5093832;28;20444;-68
2023/04/07 08:52:57;;;;;;;5.50;4.10;;;9.30;1.00;;;;;;5094340;28;20415;-68
2023/04/07 08:55:24;;;;;;;7.50;5.07;;;9.50;99.90;;;;;;5094656;28;20409;-68
2023/04/07 08:57:51;;;;;;;7.90;5.90;;;9.60;99.90;;;;;;5094453;28;20881;-68
2023/04/07 09:00:17;;;;;;;4.80;4.23;;;9.60;99.90;;;;;;5093724;28;20408;-68
2023/04/07 09:02:44;;;;;;;5.40;4.40;;;9.80;99.90;;;;;;5093619;28;20495;-68
2023/04/07 09:05:13;;;;;;;4.33;3.93;;;9.80;99.90;;;;;;5094317;28;20878;-68
2023/04/07 09:07:39;;;;;;;3.80;3.50;;;9.90;99.90;;;;;;5094332;28;20374;-68
2023/04/07 09:10:06;;;;;;;5.30;4.87;;;10.00;99.90;;;;;;5093581;28;20455;-69
2023/04/07 09:12:32;;;;;;;5.23;4.73;;;10.00;99.90;;;;;;5094031;28;20916;-68
2023/04/07 09:14:59;;;;;;;6.30;3.90;;;10.20;99.90;;;;;;5093644;28;20378;-69
2023/04/07 09:17:28;;;;;;;5.63;3.93;;;10.40;99.90;;;;;;5094240;28;20405;-68
2023/04/07 09:19:58;;;;;;;4.70;3.67;;;10.60;99.90;;;;;;5093885;28;20366;-69
2023/04/07 09:22:38;;;;;;;4.53;4.13;;;10.90;1.00;;;;;;5092880;28;20815;-69
2023/04/07 09:25:18;;;;;;;4.20;3.83;;;10.90;99.90;;;;;;5093908;28;20407;-70
2023/04/07 09:28:03;;;;;;;3.30;3.00;;;11.10;1.00;;;;;;5093984;28;20378;-69
2023/04/07 09:30:32;;;;;;;4.07;3.73;;;11.40;1.00;;;;;;5093170;28;20513;-70
2023/04/07 09:33:05;;;;;;;5.97;3.40;;;11.50;1.00;;;;;;5093690;28;20405;-69
2023/04/07 09:35:52;;;;;;;4.80;3.57;;;11.70;1.00;;;;;;5093810;28;20896;-70
2023/04/07 09:38:18;;;;;;;3.33;2.90;;;12.10;1.00;;;;;;5093684;28;20461;-69
2023/04/07 09:40:43;;;;;;;2.70;2.50;;;12.30;1.00;;;;;;5092613;28;20423;-68
2023/04/07 09:43:16;;;;;;;3.40;3.00;;;12.10;1.00;;;;;;5075299;28;20424;-69
2023/04/07 09:45:41;;;;;;;4.70;3.10;;;11.50;1.00;;;;;;5093620;28;20197;-70
2023/04/07 09:48:17;;;;;;;4.53;2.60;;;11.20;1.00;;;;;;5093673;28;20434;-71
2023/04/07 09:50:48;;;;;;;4.10;2.93;;;11.50;1.00;;;;;;5076871;28;20235;-71
2023/04/07 09:53:15;;;;;;;2.93;2.70;;;11.80;1.00;;;;;;5093279;28;20420;-69
2023/04/07 09:55:42;;;;;;;3.03;2.83;;;11.90;1.00;;;;;;5093208;28;20407;-68
2023/04/07 09:58:15;;;;;;;4.53;3.10;;;12.10;1.00;;;;;;5093173;28;20529;-69
2023/04/07 10:00:45;;;;;;;2.50;2.30;;;12.50;1.00;;;;;;5092842;28;20412;-73
2023/04/07 10:03:12;;;;;;;4.90;3.50;;;12.90;1.00;;;;;;5093110;28;20590;-69
2023/04/07 10:05:38;;;;;;;2.40;2.20;;;12.90;1.00;;;;;;5093225;28;20876;-69
2023/04/07 10:08:05;;;;;;;2.80;2.23;;;12.80;1.00;;;;;;5093466;28;20404;-70
2023/04/07 10:10:32;;;;;;;6.00;2.30;;;13.00;1.00;;;;;;5092521;28;20463;-68
2023/04/07 10:13:01;;;;;;;3.13;2.87;;;13.00;1.00;;;;;;5092977;28;20787;-68
2023/04/07 10:15:27;;;;;;;2.67;2.20;;;12.90;1.00;;;;;;5092802;28;20408;-69
2023/04/07 10:17:55;;;;;;;2.60;2.00;;;12.90;99.90;;;;;;5093193;28;20411;-70
2023/04/07 10:20:25;;;;;;;2.93;1.80;;;12.80;99.90;;;;;;5092522;28;20243;-69
2023/04/07 10:22:54;;;;;;;2.73;2.10;;;12.60;99.90;;;;;;5093113;28;20912;-70
2023/04/07 10:25:23;;;;;;;2.63;2.03;;;12.90;99.90;;;;;;5093051;28;20412;-69
2023/04/07 10:28:02;;;;;;;3.20;2.30;;;12.90;99.90;;;;;;5092241;28;20407;-69
2023/04/07 10:30:31;;;;;;;2.83;2.07;;;12.60;99.90;;;;;;5092306;28;20466;-70
2023/04/07 10:32:57;;;;;;;2.40;2.20;;;12.80;99.90;;;;;;5092436;28;20511;-69
2023/04/07 10:35:23;;;;;;;4.47;2.23;;;12.50;99.90;;;;;;5093026;28;20410;-69
2023/04/07 10:38:22;;;;;;;2.13;1.93;;;12.60;99.90;;;;;;5092978;28;20404;-67
2023/04/07 10:40:47;;;;;;;2.10;1.90;;;12.40;99.90;;;;;;5058334;28;20411;-68
2023/04/07 10:43:38;;;;;;;3.90;1.93;;;12.70;99.90;;;;;;5092809;28;20434;-68
2023/04/07 10:46:04;;;;;;;4.70;2.23;;;12.50;99.90;;;;;;5074895;28;20530;-70
2023/04/07 10:48:31;;;;;;;1.90;1.60;;;12.10;99.90;;;;;;5092891;28;20412;-70
2023/04/07 10:51:03;;;;;;;3.17;2.47;;;12.00;99.90;;;;;;5091657;28;20558;-70
2023/04/07 10:53:30;;;;;;;6.30;4.77;;;12.20;1.00;;;;;;5092700;28;20423;-70
2023/04/07 10:55:56;;;;;;;10.40;2.03;;;12.50;1.00;;;;;;5092701;28;20412;-68
2023/04/07 10:58:28;;;;;;;2.10;1.90;;;13.20;1.00;;;;;;5092723;28;20884;-69
2023/04/07 11:00:59;;;;;;;3.07;1.97;;;13.50;1.00;;;;;;5092105;28;20422;-70
2023/04/07 11:03:26;;;;;;;2.07;1.67;;;13.50;1.00;;;;;;5092738;28;20842;-68
2023/04/07 11:05:52;;;;;;;2.40;2.20;;;13.40;1.00;;;;;;5093110;28;20426;-70
2023/04/07 11:08:45;;;;;;;3.07;1.97;;;13.40;1.00;;;;;;5092067;28;20403;-69
2023/04/07 11:11:13;;;;;;;3.93;2.20;;;12.80;99.90;;;;;;5088005;28;20447;-70
2023/04/07 11:13:46;;;;;;;1.27;1.17;;;13.10;99.90;;;;;;5092439;28;20557;-70
2023/04/07 11:16:13;;;;;;;2.13;2.00;;;13.00;99.90;;;;;;5092555;28;20392;-69
2023/04/07 11:18:48;;;;;;;2.90;2.13;;;12.80;99.90;;;;;;5092571;28;20387;-70
2023/04/07 11:21:18;;;;;;;2.53;1.90;;;12.60;99.90;;;;;;5092008;28;20391;-71
2023/04/07 11:23:45;;;;;;;1.90;1.80;;;12.40;99.90;;;;;;5092313;28;20419;-71
2023/04/07 11:26:16;;;;;;;3.20;2.67;;;12.40;99.90;;;;;;5092138;28;20876;-69
2023/04/07 11:28:52;;;;;;;9.30;2.70;;;12.90;99.90;;;;;;5092592;28;20427;-71
2023/04/07 11:31:23;;;;;;;2.33;1.77;;;13.80;99.90;;;;;;5073669;28;20415;-71
2023/04/07 11:34:00;;;;;;;8.43;1.77;;;14.30;1.00;;;;;;5092408;28;20419;-69
2023/04/07 11:36:32;;;;;;;2.30;2.10;;;14.30;99.90;;;;;;5092322;28;20395;-69
2023/04/07 11:38:59;;;;;;;1.40;1.30;;;13.90;99.90;;;;;;5094426;28;20407;-69
2023/04/07 11:41:29;;;;;;;2.00;1.80;;;14.10;99.90;;;;;;5094814;28;20427;-68
2023/04/07 11:44:08;;;;;;;4.03;1.97;;;13.70;99.90;;;;;;5095921;28;20911;-70
2023/04/07 11:46:35;;;;;;;3.30;1.90;;;14.30;99.90;;;;;;5095865;28;20931;-69
2023/04/07 11:49:12;;;;;;;1.80;1.70;;;15.10;1.00;;;;;;5095834;28;20427;-69
2023/04/07 11:51:38;;;;;;;4.23;2.00;;;15.60;99.90;;;;;;5095125;28;20749;-70
2023/04/07 11:54:04;;;;;;;2.80;2.17;;;15.80;99.90;;;;;;5095783;28;20412;-71
2023/04/07 11:56:41;;;;;;;2.40;1.97;;;15.70;99.90;;;;;;5077491;28;20413;-69
2023/04/07 11:59:07;;;;;;;5.57;2.33;;;15.20;99.90;;;;;;5094990;28;20895;-69
2023/04/07 12:01:40;;;;;;;3.40;2.60;;;14.30;99.90;;;;;;5076687;28;20461;-71
2023/04/07 12:04:11;;;;;;;2.57;2.30;;;13.60;99.90;;;;;;5095697;28;20177;-71
2023/04/07 12:06:40;;;;;;;4.00;3.70;;;13.00;99.90;;;;;;5095571;28;20379;-69
2023/04/07 12:09:28;;;;;;;4.33;3.93;;;12.30;99.90;;;;;;5095216;28;20410;-68
2023/04/07 12:11:55;;;;;;;3.23;2.93;;;11.90;99.90;;;;;;5077239;28;20435;-70
2023/04/07 12:14:21;;;;;;;3.63;3.33;;;12.10;99.90;;;;;;5077115;28;20382;-69
2023/04/07 12:16:47;;;;;;;4.00;3.70;;;12.40;99.90;;;;;;5094861;28;20445;-72
2023/04/07 12:19:13;;;;;;;5.23;4.37;;;12.40;99.90;;;;;;5095281;28;20413;-72
2023/04/07 12:21:39;;;;;;;5.80;4.23;;;12.70;99.90;;;;;;5094576;28;20436;-71
2023/04/07 12:24:05;;;;;;;7.93;3.27;;;12.80;99.90;;;;;;5095202;28;20764;-70
2023/04/07 12:26:31;;;;;;;3.83;3.50;;;13.40;99.90;;;;;;5095061;28;20416;-69
2023/04/07 12:29:03;;;;;;;3.57;3.30;;;13.60;99.90;;;;;;5095034;28;20457;-71
2023/04/07 12:31:41;;;;;;;4.30;3.90;;;14.10;99.90;;;;;;5093715;28;20438;-71
2023/04/07 12:34:07;;;;;;;3.43;3.13;;;14.90;99.90;;;;;;5094945;28;20755;-70
2023/04/07 12:36:43;;;;;;;;;;;;;;;;;;;;;
2023/04/07 12:39:10;;;;;;;3.60;3.30;;;15.70;99.90;;;;;;5095043;28;20399;-69
2023/04/07 12:41:37;;;;;;;3.10;2.87;;;15.00;99.90;;;;;;5094076;28;20581;-69
2023/04/07 12:44:03;;;;;;;3.30;3.00;;;14.20;99.90;;;;;;5094777;28;20236;-69
2023/04/07 12:46:39;;;;;;;4.10;3.20;;;13.70;99.90;;;;;;5094737;28;20415;-70
2023/04/07 12:49:05;;;;;;;3.20;3.00;;;14.50;99.90;;;;;;5094793;28;20225;-69
2023/04/07 12:51:33;;;;;;;3.63;3.10;;;15.10;99.90;;;;;;5092642;28;20407;-71
2023/04/07 12:54:00;;;;;;;3.73;2.77;;;15.30;99.90;;;;;;5094588;28;20460;-70
2023/04/07 12:56:27;;;;;;;3.33;3.03;;;15.20;99.90;;;;;;5094505;28;20392;-71
2023/04/07 12:58:53;;;;;;;3.60;3.10;;;15.70;99.90;;;;;;5094435;28;20416;-71